Time;durP1;ratioP1;P1;durP2;ratioP2;P2;SDS_P1;SDS_P2;PMS_P1;PMS_P2;Temp;Humidity;BMP_temperature;BMP_pressure;BME280_temperature;BME280_humidity;BME280_pressure;Samples;Min_cycle;Max_cycle;Signal;HPM_P1;HPM_P2
2022/12/25 00:01:35;;;;;;;3.80;1.63;;;;;;;6.73;100.00;100740.26;1715821;82;21059;-72
2022/12/25 00:04:02;;;;;;;7.67;2.40;;;;;;;6.70;100.00;100743.33;1713119;82;21116;-72
2022/12/25 00:06:29;;;;;;;4.00;1.83;;;;;;;6.67;100.00;100748.58;1689519;84;21031;-73
2022/12/25 00:08:56;;;;;;;7.43;1.77;;;;;;;6.64;100.00;100751.23;1705062;83;21055;-72
2022/12/25 00:11:23;;;;;;;3.17;1.70;;;;;;;6.62;100.00;100753.45;1706216;83;21123;-72
2022/12/25 00:13:50;;;;;;;4.27;2.10;;;;;;;6.59;100.00;100757.41;1688018;83;21014;-72
2022/12/25 00:16:22;;;;;;;2.07;1.10;;;;;;;6.56;100.00;100758.75;1689548;83;21130;-72
2022/12/25 00:18:53;;;;;;;4.47;1.80;;;;;;;6.53;100.00;100768.77;1702235;83;21041;-72
2022/12/25 00:21:21;;;;;;;3.00;1.63;;;;;;;6.48;100.00;100765.37;1699443;84;21075;-72
2022/12/25 00:23:54;;;;;;;3.90;1.60;;;;;;;6.44;100.00;100765.01;1704607;82;21013;-72
2022/12/25 00:26:22;;;;;;;6.07;1.90;;;;;;;6.41;100.00;100764.61;1684529;83;21065;-74
2022/12/25 00:28:55;;;;;;;3.83;1.50;;;;;;;6.40;100.00;100771.12;1691128;83;21902;-73
2022/12/25 00:31:23;;;;;;;2.87;1.70;;;;;;;6.36;100.00;100762.50;1770678;80;21041;-72
2022/12/25 00:33:52;;;;;;;5.37;1.87;;;;;;;6.32;100.00;100761.25;1779304;80;21044;-72
2022/12/25 00:36:21;;;;;;;4.30;2.00;;;;;;;6.27;100.00;100766.99;1777433;80;20984;-72
2022/12/25 00:38:48;;;;;;;3.22;1.65;;;;;;;6.24;100.00;100775.70;1782148;80;21038;-73
2022/12/25 00:44:09;;;;;;;4.75;2.50;;;;;;;6.14;100.00;100774.94;1773444;80;21036;-73
2022/12/25 00:46:37;;;;;;;4.30;2.00;;;;;;;6.07;100.00;100772.43;1769558;80;21425;-73
2022/12/25 00:49:04;;;;;;;5.20;1.97;;;;;;;6.00;100.00;100775.11;1747909;80;21018;-72
2022/12/25 00:51:32;;;;;;;3.37;1.60;;;;;;;5.96;100.00;100774.75;1742934;80;21026;-72
2022/12/25 00:53:59;;;;;;;2.83;1.50;;;;;;;5.89;100.00;100770.45;1742913;80;21086;-72
2022/12/25 00:56:26;;;;;;;5.27;1.67;;;;;;;5.80;100.00;100775.33;1755672;80;20993;-73
2022/12/25 00:58:54;;;;;;;4.13;1.47;;;;;;;5.72;100.00;100781.49;1730641;80;21032;-73
2022/12/25 01:01:21;;;;;;;4.03;1.40;;;;;;;5.68;100.00;100786.29;1739643;80;21299;-73
2022/12/25 01:03:48;;;;;;;5.13;1.63;;;;;;;5.63;100.00;100788.96;1742526;80;20991;-73
2022/12/25 01:06:15;;;;;;;3.60;1.60;;;;;;;5.62;100.00;100785.06;1744130;80;21128;-73
2022/12/25 01:11:29;;;;;;;2.47;1.50;;;;;;;5.33;100.00;100792.28;1762375;80;20977;-72
2022/12/25 01:13:56;;;;;;;2.23;1.33;;;;;;;5.15;100.00;100798.92;1777116;80;20912;-72
2022/12/25 01:16:23;;;;;;;2.43;1.17;;;;;;;5.06;100.00;100802.91;1760189;80;21476;-72
2022/12/25 01:18:51;;;;;;;1.90;1.37;;;;;;;4.92;100.00;100804.31;1747696;80;21935;-72
2022/12/25 01:21:24;;;;;;;1.93;1.23;;;;;;;4.78;100.00;100816.53;1761472;80;21478;-72
2022/12/25 01:23:52;;;;;;;2.93;1.40;;;;;;;4.67;100.00;100820.49;1764474;80;20998;-73
2022/12/25 01:26:22;;;;;;;2.40;1.20;;;;;;;4.55;100.00;100817.98;1748415;81;21095;-73
2022/12/25 01:28:50;;;;;;;4.27;1.83;;;;;;;4.46;100.00;100815.87;1739699;81;21040;-74
2022/12/25 01:31:20;;;;;;;2.23;1.00;;;;;;;4.34;100.00;100815.91;1770191;81;21631;-72
2022/12/25 01:33:47;;;;;;;1.85;1.20;;;;;;;4.24;100.00;100817.70;1774418;80;21020;-72
2022/12/25 01:36:19;;;;;;;4.10;1.83;;;;;;;4.17;100.00;100809.50;1767746;80;20936;-73
2022/12/25 01:38:48;;;;;;;5.37;2.20;;;;;;;4.10;100.00;100805.63;1734802;80;21052;-72
2022/12/25 01:41:18;;;;;;;7.17;2.47;;;;;;;4.07;100.00;100803.91;1774961;80;21282;-73
2022/12/25 01:44:10;;;;;;;4.83;2.65;;;;;;;4.04;100.00;100806.52;1749216;80;21114;-73
2022/12/25 01:46:37;;;;;;;5.17;2.03;;;;;;;3.97;100.00;100817.80;1732535;82;20980;-73
2022/12/25 01:49:12;;;;;;;6.57;2.90;;;;;;;3.98;100.00;100813.03;1734879;82;21545;-73
2022/12/25 01:52:11;;;;;;;5.60;2.50;;;;;;;3.93;100.00;100816.07;1708532;84;21024;-73
2022/12/25 01:54:57;;;;;;;12.53;4.13;;;;;;;3.80;100.00;100818.72;1690234;83;21559;-72
2022/12/25 01:57:28;;;;;;;8.07;2.90;;;;;;;3.72;100.00;100819.60;1730455;81;21072;-73
2022/12/25 01:59:58;;;;;;;6.30;2.63;;;;;;;3.67;100.00;100818.30;1742071;81;21066;-73
2022/12/25 02:02:28;;;;;;;5.00;2.70;;;;;;;3.58;100.00;100817.04;1707177;82;21044;-73
2022/12/25 02:05:12;;;;;;;5.30;3.13;;;;;;;3.47;100.00;100813.60;1735885;82;22347;-73
2022/12/25 02:07:41;;;;;;;7.60;3.73;;;;;;;3.44;100.00;100815.77;1734897;81;21012;-73
2022/12/25 02:10:11;;;;;;;8.88;3.77;;;;;;;3.45;100.00;100817.91;1733275;82;22124;-73
2022/12/25 02:12:40;;;;;;;12.00;4.03;;;;;;;3.48;100.00;100814.02;1703852;82;21514;-73
2022/12/25 02:15:16;;;;;;;10.83;3.07;;;;;;;3.53;100.00;100813.15;1737773;82;21105;-73
2022/12/25 02:18:04;;;;;;;6.67;3.33;;;;;;;3.70;100.00;100812.25;1716885;81;21049;-74
2022/12/25 02:20:51;;;;;;;7.17;3.40;;;;;;;3.97;100.00;100813.91;1728063;81;21549;-74
2022/12/25 02:23:41;;;;;;;11.73;4.40;;;;;;;4.22;100.00;100809.05;1745394;82;21720;-74
2022/12/25 02:26:46;;;;;;;10.53;3.25;;;;;;;4.47;100.00;100808.49;1717038;81;21831;-74
2022/12/25 02:29:33;;;;;;;7.33;2.97;;;;;;;4.66;100.00;100816.19;1724131;81;21372;-74
2022/12/25 02:32:21;;;;;;;5.63;3.00;;;;;;;4.81;100.00;100818.67;1748177;81;21634;-74
2022/12/25 02:35:09;;;;;;;7.63;3.07;;;;;;;5.00;100.00;100823.74;1758515;80;21032;-74
2022/12/25 02:38:02;;;;;;;9.33;2.97;;;;;;;5.11;100.00;100823.22;1761896;81;21123;-74
2022/12/25 02:40:40;;;;;;;8.10;3.13;;;;;;;5.10;100.00;100828.86;1772222;80;21004;-74
2022/12/25 03:08:41;;;;;;;13.93;4.33;;;;;;;5.42;100.00;100842.46;1674945;83;21124;-73
2022/12/25 03:11:29;;;;;;;10.23;3.40;;;;;;;5.46;100.00;100842.84;1691963;83;21070;-74
2022/12/25 03:16:58;;;;;;;11.50;4.00;;;;;;;5.49;100.00;100845.00;1658394;83;21097;-74
2022/12/25 03:27:57;;;;;;;10.67;3.97;;;;;;;5.54;100.00;100861.42;1700118;83;20176;-74
2022/12/25 03:31:11;;;;;;;12.53;3.52;;;;;;;5.54;100.00;100870.52;1704801;83;21055;-74
2022/12/25 03:35:21;;;;;;;16.07;4.70;;;;;;;5.57;100.00;100873.09;1704114;82;21166;-73
2022/12/25 03:36:30;;;;;;;10.78;3.98;;;;;;;5.61;100.00;100876.97;1700183;84;21700;-73
2022/12/25 04:37:44;;;;;;;7.43;3.10;;;;;;;5.34;100.00;100882.37;1736830;82;21059;-74
2022/12/25 04:40:12;;;;;;;10.03;3.20;;;;;;;5.29;100.00;100880.67;1739419;81;21276;-75
2022/12/25 04:42:39;;;;;;;8.10;2.67;;;;;;;5.16;100.00;100893.36;1732616;81;21122;-74
2022/12/25 04:45:08;;;;;;;7.53;3.03;;;;;;;4.95;100.00;100897.80;1735295;82;21050;-75
2022/12/25 04:47:35;;;;;;;8.50;3.90;;;;;;;4.74;100.00;100907.00;1732290;82;21065;-75
2022/12/25 04:50:03;;;;;;;6.40;2.90;;;;;;;4.54;100.00;100907.09;1750177;80;20974;-75
2022/12/25 04:52:36;;;;;;;6.20;2.87;;;;;;;4.38;100.00;100914.07;1749816;80;21081;-75
2022/12/25 04:55:06;;;;;;;5.77;2.80;;;;;;;4.27;100.00;100908.05;1743939;81;21081;-74
2022/12/25 04:57:33;;;;;;;7.85;2.30;;;;;;;4.10;100.00;100906.40;1706358;81;21547;-74
2022/12/25 05:00:01;;;;;;;7.50;2.77;;;;;;;3.94;100.00;100908.16;1717328;83;21012;-74
2022/12/25 05:02:28;;;;;;;5.53;2.90;;;;;;;3.82;100.00;100914.63;1718480;83;21063;-74
2022/12/25 05:04:55;;;;;;;4.27;2.67;;;;;;;3.71;100.00;100916.38;1741719;79;21251;-75
2022/12/25 05:07:22;;;;;;;4.70;2.80;;;;;;;3.56;100.00;100925.03;1734449;80;21180;-75
2022/12/25 05:09:49;;;;;;;4.93;2.47;;;;;;;3.43;100.00;100920.27;1767614;80;21019;-75
2022/12/25 05:12:16;;;;;;;4.60;2.83;;;;;;;3.27;100.00;100927.18;1758007;80;20973;-75
2022/12/25 05:14:43;;;;;;;5.20;2.50;;;;;;;3.11;100.00;100937.94;1776816;80;21618;-75
2022/12/25 05:17:10;;;;;;;4.33;2.83;;;;;;;2.98;100.00;100939.20;1761267;79;21043;-75
2022/12/25 05:19:37;;;;;;;4.10;3.10;;;;;;;2.89;100.00;100939.61;1763238;80;21055;-75
2022/12/25 05:22:05;;;;;;;5.87;3.10;;;;;;;2.79;100.00;100940.86;1772732;79;20873;-75
2022/12/25 05:24:32;;;;;;;5.97;3.13;;;;;;;2.67;100.00;100947.73;1770262;80;21050;-75
2022/12/25 05:26:59;;;;;;;5.83;2.97;;;;;;;2.53;100.00;100952.41;1754808;79;21035;-75
2022/12/25 05:29:26;;;;;;;6.20;3.13;;;;;;;2.50;100.00;100944.64;1776782;79;21062;-75
2022/12/25 05:31:53;;;;;;;5.83;3.20;;;;;;;2.39;100.00;100942.00;1771567;79;21961;-75
2022/12/25 05:34:20;;;;;;;7.43;3.50;;;;;;;2.30;100.00;100955.75;1759071;80;21477;-75
2022/12/25 05:36:47;;;;;;;4.50;3.10;;;;;;;2.16;100.00;100955.67;1776558;80;21026;-75
2022/12/25 05:39:14;;;;;;;5.53;3.17;;;;;;;2.07;100.00;100954.30;1763907;80;20964;-76
2022/12/25 05:41:41;;;;;;;6.77;3.80;;;;;;;2.05;100.00;100952.55;1768190;80;21343;-75
2022/12/25 05:44:08;;;;;;;6.63;4.10;;;;;;;2.00;100.00;100947.38;1777637;80;21163;-76
2022/12/25 05:46:36;;;;;;;6.90;4.00;;;;;;;1.93;100.00;100963.69;1760673;79;20987;-74
2022/12/25 05:49:04;;;;;;;5.23;3.23;;;;;;;1.87;100.00;100961.06;1764792;80;21024;-75
2022/12/25 05:51:31;;;;;;;4.57;3.37;;;;;;;1.82;100.00;100967.91;1763282;79;21086;-75
2022/12/25 05:53:58;;;;;;;6.83;3.50;;;;;;;1.79;100.00;100980.38;1753946;80;21437;-73
2022/12/25 05:56:26;;;;;;;6.20;2.90;;;;;;;1.75;100.00;100981.22;1730279;79;21108;-74
2022/12/25 05:58:53;;;;;;;4.53;2.50;;;;;;;1.73;100.00;100977.31;1749144;79;21079;-73
2022/12/25 06:01:24;;;;;;;3.33;2.30;;;;;;;1.66;100.00;100980.69;1769466;79;20987;-73
2022/12/25 06:03:51;;;;;;;3.37;2.30;;;;;;;1.60;100.00;100997.87;1776750;80;20919;-74
2022/12/25 06:06:18;;;;;;;4.40;2.37;;;;;;;1.56;100.00;100995.69;1776342;80;21473;-73
2022/12/25 06:08:45;;;;;;;3.30;2.13;;;;;;;1.50;100.00;100993.92;1773972;79;21830;-74
2022/12/25 06:11:14;;;;;;;3.33;2.40;;;;;;;1.43;100.00;100992.11;1776856;80;21051;-75
2022/12/25 06:13:42;;;;;;;2.73;2.07;;;;;;;1.34;100.00;101001.93;1775893;80;21027;-75
2022/12/25 06:16:11;;;;;;;3.33;2.30;;;;;;;1.26;100.00;100999.69;1757548;79;21328;-75
2022/12/25 06:18:42;;;;;;;3.50;2.27;;;;;;;1.19;100.00;101009.93;1748685;79;21461;-75
2022/12/25 06:21:12;;;;;;;4.50;2.43;;;;;;;1.14;100.00;101015.06;1753253;80;21899;-75
2022/12/25 06:23:39;;;;;;;5.37;3.07;;;;;;;1.13;100.00;101020.20;1753533;80;21003;-75
2022/12/25 06:26:11;;;;;;;3.57;2.37;;;;;;;1.06;100.00;101014.11;1755425;80;20960;-75
2022/12/25 06:28:38;;;;;;;5.37;3.17;;;;;;;1.00;100.00;101017.88;1771319;80;20995;-75
2022/12/25 06:31:11;;;;;;;5.23;3.27;;;;;;;0.94;100.00;101021.69;1744844;80;21039;-75
2022/12/25 06:33:39;;;;;;;6.07;3.80;;;;;;;0.90;100.00;101022.08;1770220;80;21136;-75
2022/12/25 06:36:11;;;;;;;11.50;5.17;;;;;;;0.87;100.00;101028.50;1763487;80;21401;-74
2022/12/25 06:38:55;;;;;;;5.97;3.27;;;;;;;0.86;100.00;101029.36;1762618;80;21542;-75
2022/12/25 06:41:21;;;;;;;6.77;4.00;;;;;;;0.82;100.00;101021.98;1745309;79;21046;-74
2022/12/25 06:43:54;;;;;;;7.10;3.93;;;;;;;0.82;100.00;101019.41;1764405;79;21116;-75
2022/12/25 06:46:24;;;;;;;6.50;3.83;;;;;;;0.87;100.00;101018.18;1761675;80;21174;-73
2022/12/25 06:48:51;;;;;;;5.15;3.30;;;;;;;0.95;100.00;101020.43;1747824;80;21020;-73
2022/12/25 06:51:23;;;;;;;9.10;4.20;;;;;;;0.99;100.00;101020.89;1743928;80;20973;-74
2022/12/25 06:53:51;;;;;;;11.50;5.80;;;;;;;1.03;100.00;101028.27;1781396;80;21076;-72
2022/12/25 06:56:23;;;;;;;13.23;6.37;;;;;;;1.02;100.00;101027.81;1767477;80;21488;-73
2022/12/25 06:58:57;;;;;;;13.40;5.60;;;;;;;0.98;100.00;101023.05;1772399;80;21164;-75
2022/12/25 07:01:32;;;;;;;9.50;4.47;;;;;;;1.03;100.00;101029.56;1782121;80;20960;-74
2022/12/25 07:04:09;;;;;;;6.20;3.77;;;;;;;1.09;100.00;101029.20;1767794;80;20968;-75
2022/12/25 07:06:36;;;;;;;8.20;4.03;;;;;;;1.13;100.00;101025.36;1721317;81;21549;-76
2022/12/25 07:09:03;;;;;;;10.33;4.37;;;;;;;1.19;100.00;101021.55;1715340;83;21056;-76
2022/12/25 07:11:30;;;;;;;11.30;6.00;;;;;;;1.19;100.00;101017.28;1714759;83;21139;-81
2022/12/25 07:13:59;;;;;;;7.87;3.70;;;;;;;1.15;100.00;101027.11;1716543;82;21052;-82
2022/12/25 07:16:26;;;;;;;7.07;3.80;;;;;;;1.12;100.00;101030.95;1698294;83;21502;-79
2022/12/25 07:18:57;;;;;;;7.33;3.93;;;;;;;1.11;100.00;101026.22;1697331;83;21044;-90
2022/12/25 07:21:24;;;;;;;5.23;3.13;;;;;;;1.17;100.00;101028.44;1719348;82;21044;-73
2022/12/25 07:23:51;;;;;;;8.87;3.83;;;;;;;1.20;100.00;101040.09;1775359;80;21129;-75
2022/12/25 07:26:18;;;;;;;6.50;3.87;;;;;;;1.15;100.00;101033.56;1771215;79;21544;-77
2022/12/25 07:28:45;;;;;;;8.20;4.40;;;;;;;1.13;100.00;101042.14;1772348;79;21597;-74
2022/12/25 07:31:15;;;;;;;7.33;4.13;;;;;;;1.11;100.00;101036.98;1770978;79;21014;-74
2022/12/25 07:33:43;;;;;;;45.78;17.75;;;;;;;1.11;100.00;101039.56;1767949;80;21075;-72
2022/12/25 07:36:14;;;;;;;52.53;19.87;;;;;;;1.09;100.00;101038.23;1767218;79;21155;-83
2022/12/25 07:38:41;;;;;;;28.97;12.27;;;;;;;1.09;100.00;101036.95;1765570;79;21058;-79
2022/12/25 07:41:11;;;;;;;15.60;8.40;;;;;;;1.12;100.00;101033.53;1765452;79;21031;-75
2022/12/25 07:43:38;;;;;;;10.47;6.90;;;;;;;1.11;100.00;101035.26;1769842;79;21064;-74
2022/12/25 07:46:06;;;;;;;14.80;7.40;;;;;;;1.13;100.00;101035.26;1759752;79;21046;-75
2022/12/25 07:48:34;;;;;;;8.00;5.63;;;;;;;1.13;100.00;101037.84;1769603;80;21822;-75
2022/12/25 07:51:06;;;;;;;8.67;5.10;;;;;;;1.11;100.00;101037.84;1759358;79;21014;-73
2022/12/25 07:53:35;;;;;;;8.90;5.20;;;;;;;1.11;100.00;101037.84;1757939;80;20995;-74
2022/12/25 07:56:12;;;;;;;11.80;6.10;;;;;;;1.11;100.00;101038.27;1771258;79;21050;-76
2022/12/25 07:58:40;;;;;;;7.77;5.73;;;;;;;1.12;100.00;101042.58;1752549;79;21054;-75
2022/12/25 08:01:18;;;;;;;8.90;5.03;;;;;;;1.14;100.00;101043.86;1749300;79;21121;-74
2022/12/25 08:03:51;;;;;;;8.57;5.53;;;;;;;1.18;100.00;101041.78;1774594;80;21007;-78
2022/12/25 08:06:21;;;;;;;26.57;15.43;;;;;;;1.26;100.00;101037.14;1770161;80;21425;-74
2022/12/25 08:08:48;;;;;;;14.23;7.60;;;;;;;1.36;100.00;101044.98;1762224;79;20988;-78
2022/12/25 08:11:15;;;;;;;17.40;8.83;;;;;;;1.40;100.00;101051.92;1738344;82;21035;-79
2022/12/25 08:13:42;;;;;;;54.73;34.67;;;;;;;1.47;100.00;101050.72;1710264;83;21103;-79
2022/12/25 08:16:10;;;;;;;20.33;11.43;;;;;;;1.51;100.00;101049.89;1702957;82;21096;-84
2022/12/25 08:18:42;;;;;;;17.70;9.27;;;;;;;1.56;100.00;101058.56;1693621;82;21934;-79
2022/12/25 08:21:13;;;;;;;25.07;16.03;;;;;;;1.64;100.00;101062.95;1709166;83;21087;-77
2022/12/25 08:23:44;;;;;;;12.97;8.40;;;;;;;1.70;100.00;101070.33;1766089;79;20987;-72
2022/12/25 08:26:15;;;;;;;11.37;7.40;;;;;;;1.74;100.00;101080.27;1745887;80;21101;-74
2022/12/25 08:28:43;;;;;;;14.97;7.17;;;;;;;1.77;100.00;101075.12;1748483;81;21058;-75
2022/12/25 08:31:20;;;;;;;19.17;11.07;;;;;;;1.83;100.00;101075.20;1765055;79;20912;-73
2022/12/25 08:33:51;;;;;;;14.23;9.57;;;;;;;1.90;100.00;101067.06;1745473;81;21015;-88
2022/12/25 08:36:19;;;;;;;5.93;4.77;;;;;;;1.97;100.00;101075.33;1771248;80;20995;-79
2022/12/25 08:38:47;;;;;;;6.90;4.40;;;;;;;2.02;100.00;101087.84;1762558;81;21194;-71
2022/12/25 08:41:16;;;;;;;9.17;4.43;;;;;;;2.08;100.00;101084.45;1759168;80;20998;-72
2022/12/25 08:43:43;;;;;;;12.13;6.03;;;;;;;2.15;100.00;101087.54;1762083;81;21047;-71
2022/12/25 08:46:11;;;;;;;12.20;7.47;;;;;;;2.21;100.00;101097.92;1762575;80;21477;-72
2022/12/25 08:48:47;;;;;;;11.17;5.57;;;;;;;2.27;100.00;101095.38;1748740;81;21038;-75
2022/12/25 08:51:20;;;;;;;6.80;4.73;;;;;;;2.31;100.00;101097.16;1739515;81;21156;-74
2022/12/25 08:53:50;;;;;;;8.87;5.30;;;;;;;2.36;100.00;101095.48;1755750;80;20999;-80
2022/12/25 08:56:19;;;;;;;7.40;5.03;;;;;;;2.38;100.00;101095.08;1761752;80;20970;-81
2022/12/25 08:58:51;;;;;;;15.43;6.53;;;;;;;2.43;100.00;101095.09;1764955;80;21048;-73
2022/12/25 09:01:19;;;;;;;11.07;6.30;;;;;;;2.50;100.00;101090.84;1743334;80;20970;-74
2022/12/25 09:03:46;;;;;;;9.77;6.53;;;;;;;2.57;100.00;101096.48;1761831;80;21094;-81
2022/12/25 09:06:16;;;;;;;8.37;4.63;;;;;;;2.64;100.00;101091.36;1756663;81;21039;-81
2022/12/25 09:08:44;;;;;;;10.48;4.20;;;;;;;2.69;100.00;101091.40;1745443;80;21516;-79
2022/12/25 09:11:14;;;;;;;8.07;4.30;;;;;;;2.73;100.00;101089.69;1761287;80;20972;-78
2022/12/25 09:13:41;;;;;;;8.85;6.28;;;;;;;2.76;100.00;101092.30;1751996;80;21040;-77
2022/12/25 09:16:13;;;;;;;8.70;5.83;;;;;;;2.80;100.00;101094.92;1757492;80;21130;-79
2022/12/25 09:18:41;;;;;;;7.70;4.87;;;;;;;2.89;100.00;101097.55;1754015;80;20991;-80
2022/12/25 09:21:12;;;;;;;8.97;4.73;;;;;;;3.00;100.00;101090.28;1767596;80;21012;-79
2022/12/25 09:23:39;;;;;;;8.75;4.53;;;;;;;3.06;100.00;101083.83;1761858;80;21553;-82
2022/12/25 09:26:14;;;;;;;7.20;5.53;;;;;;;3.10;100.00;101084.27;1745950;80;21041;-79
2022/12/25 09:28:43;;;;;;;6.57;4.80;;;;;;;3.16;100.00;101078.24;1733826;82;21176;-84
2022/12/25 09:31:10;;;;;;;8.90;4.53;;;;;;;3.23;100.00;101083.46;1729871;82;21490;-78
2022/12/25 09:33:37;;;;;;;12.40;4.97;;;;;;;3.30;100.00;101083.94;1712114;82;21064;-82
2022/12/25 09:36:07;;;;;;;9.20;4.50;;;;;;;3.36;100.00;101093.45;1733964;82;22515;-83
2022/12/25 09:38:35;;;;;;;10.80;5.03;;;;;;;3.40;100.00;101087.84;1734399;82;21008;-82
2022/12/25 09:41:28;;;;;;;9.10;4.73;;;;;;;3.43;100.00;101095.19;1716473;82;22073;-80
2022/12/25 09:44:07;;;;;;;10.70;5.23;;;;;;;3.50;100.00;101090.47;1734287;82;21060;-81
2022/12/25 09:46:48;;;;;;;9.73;5.77;;;;;;;3.61;100.00;101092.23;1734432;82;20936;-84
2022/12/25 09:49:50;;;;;;;11.00;4.67;;;;;;;3.74;100.00;101086.19;1727131;81;21542;-78
2022/12/25 09:52:22;;;;;;;12.20;5.50;;;;;;;3.85;100.00;101084.92;1723138;82;21051;-83
2022/12/25 09:55:20;;;;;;;13.57;6.03;;;;;;;3.98;100.00;101084.08;1731540;82;21125;-80
2022/12/25 09:58:03;;;;;;;11.13;6.20;;;;;;;4.07;100.00;101078.03;1731507;82;20993;-78
2022/12/25 10:00:37;;;;;;;11.23;7.43;;;;;;;4.14;100.00;101068.09;1707475;83;21028;-79
2022/12/25 10:03:27;;;;;;;16.17;8.37;;;;;;;4.33;100.00;101067.67;1733406;82;21631;-77
2022/12/25 10:06:14;;;;;;;12.95;7.50;;;;;;;4.51;100.00;101066.33;1721566;81;21012;-77
2022/12/25 10:09:09;;;;;;;13.13;7.77;;;;;;;4.82;100.00;101064.55;1732973;81;21774;-79
2022/12/25 10:12:08;;;;;;;15.70;9.30;;;;;;;5.12;100.00;101064.86;1734701;81;21023;-80
2022/12/25 10:14:52;;;;;;;14.85;8.70;;;;;;;5.46;100.00;101054.73;1734767;81;21004;-85
2022/12/25 10:17:52;;;;;;;17.37;9.90;;;;;;;5.78;100.00;101054.11;1710015;82;21008;-84
2022/12/25 10:20:51;;;;;;;15.28;10.03;;;;;;;6.05;100.00;101044.86;1690693;84;21055;-85
2022/12/25 10:23:32;;;;;;;19.37;10.20;;;;;;;6.34;100.00;101035.03;1649715;85;21153;-84
2022/12/25 10:25:59;;;;;;;15.80;8.90;;;;;;;6.63;100.00;101032.14;1678608;85;20928;-82
2022/12/25 10:28:35;;;;;;;16.80;8.83;;;;;;;6.89;100.00;101023.17;1725335;81;21023;-86
2022/12/25 10:31:20;;;;;;;13.10;7.57;;;;;;;7.11;100.00;101020.71;1706171;83;21066;-78
2022/12/25 10:33:50;;;;;;;14.77;9.27;;;;;;;7.29;100.00;101021.38;1701532;81;21094;-84
2022/12/25 10:36:21;;;;;;;15.28;7.92;;;;;;;7.50;100.00;101012.38;1712838;81;26100;-76
2022/12/25 10:38:48;;;;;;;12.67;7.77;;;;;;;7.65;100.00;101006.94;1704448;83;21067;-78
2022/12/25 10:41:55;;;;;;;18.47;11.97;;;;;;;7.78;100.00;101011.50;1715698;82;20964;-71
2022/12/25 10:44:25;;;;;;;25.73;17.13;;;;;;;7.97;100.00;101009.47;1707494;83;21109;-77
2022/12/25 10:46:57;;;;;;;20.85;13.95;;;;;;;8.24;100.00;101014.22;1704268;82;21134;-75
2022/12/25 10:49:32;;;;;;;26.40;15.17;;;;;;;8.45;100.00;101013.44;1697146;83;21101;-74
2022/12/25 10:52:00;;;;;;;27.35;13.90;;;;;;;8.58;100.00;101009.71;1775650;79;21038;-75
2022/12/25 10:54:35;;;;;;;17.87;10.78;;;;;;;8.73;100.00;101008.99;1776985;80;21590;-76
2022/12/25 10:57:15;;;;;;;16.73;11.33;;;;;;;8.86;100.00;100998.72;1784132;79;21471;-75
2022/12/25 10:59:47;;;;;;;22.17;11.73;;;;;;;9.01;100.00;100992.33;1748006;80;21049;-75
2022/12/25 11:02:28;;;;;;;14.85;9.75;;;;;;;9.15;100.00;100992.44;1758918;80;22008;-75
2022/12/25 11:05:06;;;;;;;14.75;8.33;;;;;;;9.32;100.00;100992.06;1756865;80;21066;-75
2022/12/25 11:07:45;;;;;;;15.43;7.78;;;;;;;9.47;100.00;100994.77;1752196;80;21098;-75
2022/12/25 11:10:24;;;;;;;23.87;10.63;;;;;;;9.58;100.00;100987.52;1771841;80;20939;-75
2022/12/25 11:12:53;;;;;;;18.60;10.90;;;;;;;9.73;100.00;100990.70;1769394;80;21003;-76
2022/12/25 11:15:43;;;;;;;22.40;11.65;;;;;;;9.93;100.00;100983.66;1775865;80;21936;-75
2022/12/25 11:18:26;;;;;;;20.52;9.93;;;;;;;10.03;99.49;100982.09;1765714;80;21065;-75
2022/12/25 11:21:03;;;;;;;23.10;10.78;;;;;;;10.15;98.87;100983.98;1775896;80;21071;-75
2022/12/25 11:23:32;;;;;;;18.60;11.00;;;;;;;10.36;98.09;100974.25;1774660;80;21000;-75
2022/12/25 11:26:06;;;;;;;25.90;15.48;;;;;;;10.59;97.15;100975.41;1775491;80;21565;-75
2022/12/25 11:28:37;;;;;;;22.98;11.25;;;;;;;10.91;97.28;100974.47;1773415;80;21126;-75
2022/12/25 11:31:13;;;;;;;21.33;10.65;;;;;;;11.30;97.18;100967.16;1766523;80;20979;-76
2022/12/25 11:34:04;;;;;;;17.05;9.38;;;;;;;11.50;96.07;100966.56;1781107;80;21012;-76
2022/12/25 11:36:49;;;;;;;17.40;8.40;;;;;;;11.65;95.44;100961.72;1754385;80;21057;-75
2022/12/25 11:39:34;;;;;;;21.33;11.88;;;;;;;11.83;94.73;100955.84;1744266;78;21276;-75
2022/12/25 11:42:21;;;;;;;22.00;11.63;;;;;;;11.98;94.72;100955.37;1757580;80;21119;-75
2022/12/25 11:44:57;;;;;;;20.02;11.33;;;;;;;12.14;94.30;100963.59;1769764;80;21035;-76
2022/12/25 11:47:47;;;;;;;16.02;9.08;;;;;;;12.25;94.26;100952.72;1769373;78;20967;-76
2022/12/25 11:50:26;;;;;;;17.48;9.95;;;;;;;12.22;94.26;100953.68;1780170;80;21018;-76
2022/12/25 11:52:57;;;;;;;21.15;10.15;;;;;;;12.05;94.26;100958.63;1776993;80;20995;-75
2022/12/25 11:55:32;;;;;;;29.75;12.30;;;;;;;11.99;94.39;100952.28;1759467;80;21152;-75
2022/12/25 11:58:07;;;;;;;19.90;10.90;;;;;;;11.94;94.42;100953.74;1786872;78;21053;-75
2022/12/25 12:00:35;;;;;;;13.90;8.40;;;;;;;11.98;94.87;100946.17;1784771;80;21011;-76
2022/12/25 12:03:26;;;;;;;18.70;9.10;;;;;;;12.11;94.69;100944.00;1767987;78;21050;-75
2022/12/25 12:06:32;;;;;;;18.80;9.03;;;;;;;12.09;94.34;100952.38;1762027;80;21042;-75
2022/12/25 12:09:26;;;;;;;28.62;13.18;;;;;;;11.93;93.94;100948.56;1763875;78;21465;-76
2022/12/25 12:12:20;;;;;;;25.88;11.08;;;;;;;11.72;93.93;100946.15;1748057;78;21462;-75
2022/12/25 12:14:53;;;;;;;24.82;10.93;;;;;;;11.59;94.08;100940.00;1771899;80;20884;-75
2022/12/25 12:17:20;;;;;;;20.08;10.32;;;;;;;11.54;93.76;100951.56;1738381;80;20962;-75
2022/12/25 12:19:47;;;;;;;19.27;10.30;;;;;;;11.56;94.33;100947.98;1765791;80;21088;-75
2022/12/25 12:22:22;;;;;;;22.70;10.43;;;;;;;11.73;94.24;100936.06;1787590;78;21485;-75
2022/12/25 12:25:04;;;;;;;18.98;9.28;;;;;;;11.95;94.66;100929.67;1787535;80;20986;-75
2022/12/25 12:27:39;;;;;;;15.28;7.75;;;;;;;12.15;94.46;100940.80;1786675;80;20979;-75
2022/12/25 12:30:27;;;;;;;11.08;6.72;;;;;;;12.28;94.25;100947.34;1776908;80;21035;-74
2022/12/25 12:33:00;;;;;;;14.07;7.65;;;;;;;12.25;93.37;100945.69;1772528;80;21453;-78
2022/12/25 12:35:33;;;;;;;16.67;8.23;;;;;;;12.15;93.16;100947.38;1778759;80;21308;-75
2022/12/25 12:38:11;;;;;;;16.82;7.50;;;;;;;12.01;93.17;100950.47;1768879;80;21445;-77
2022/12/25 12:40:46;;;;;;;16.80;7.60;;;;;;;11.87;92.40;100943.52;1769082;79;21023;-74
2022/12/25 12:43:27;;;;;;;15.50;8.55;;;;;;;11.67;92.19;100933.66;1777640;79;21022;-81
2022/12/25 12:45:59;;;;;;;18.27;9.60;;;;;;;11.50;92.44;100936.37;1774796;79;20956;-81
2022/12/25 12:48:46;;;;;;;19.77;9.10;;;;;;;11.37;92.55;100945.08;1780431;80;21116;-82
2022/12/25 12:51:16;;;;;;;21.33;10.15;;;;;;;11.26;92.78;100955.05;1738730;80;21538;-80
2022/12/25 12:53:43;;;;;;;16.40;7.70;;;;;;;11.13;92.74;100949.77;1779961;80;21257;-78
2022/12/25 12:56:19;;;;;;;20.00;8.95;;;;;;;10.96;92.63;100931.92;1777816;80;21086;-81
2022/12/25 12:58:49;;;;;;;19.52;10.72;;;;;;;10.86;92.98;100917.36;1751479;80;21054;-73
2022/12/25 13:01:37;;;;;;;;;;;;;;;10.80;92.90;100912.30;1759725;80;21184;-75
2022/12/25 13:04:28;;;;;;;19.50;9.80;;;;;;;10.69;92.61;100908.69;1766814;80;20199;-74
2022/12/25 13:07:26;;;;;;;18.70;9.03;;;;;;;10.63;93.00;100893.99;1775559;80;21015;-76
2022/12/25 13:09:58;;;;;;;18.82;7.95;;;;;;;10.60;93.15;100890.16;1777602;80;21076;-74
2022/12/25 13:12:26;;;;;;;11.83;6.17;;;;;;;10.56;92.96;100904.69;1764118;80;21055;-76
2022/12/25 13:14:55;;;;;;;15.90;6.58;;;;;;;10.51;93.04;100914.48;1754164;80;21121;-84
2022/12/25 13:17:25;;;;;;;40.20;16.23;;;;;;;10.49;93.32;100918.44;1752416;80;21539;-76
2022/12/25 13:19:59;;;;;;;41.42;15.80;;;;;;;10.43;93.05;100923.41;1759289;80;21027;-76
2022/12/25 13:22:35;;;;;;;43.00;14.83;;;;;;;10.37;93.12;100927.97;1770807;80;21623;-90
2022/12/25 13:25:11;;;;;;;38.05;13.35;;;;;;;10.40;93.40;100933.12;1776230;80;21018;-80
2022/12/25 13:27:39;;;;;;;19.45;8.95;;;;;;;10.43;93.21;100922.55;1779955;80;21133;-78
2022/12/25 13:30:18;;;;;;;25.43;11.73;;;;;;;10.47;93.28;100913.69;1767688;80;20960;-77